Strona główna
METAR-TAF:

METAR-TAF

Lotnisko :

Port lotniczy Biak-Frans Kaisiepo

Biak, Indonezja

Szerokość geograficzna: 01-11S, Długość geograficzna: 136-07E, wysokość: 11 m

METAR: brakujący

czas: 06:06 (23:06 UTC)

Prognoza

Raport powstał 6 godziny i 6 minut temu, godzina 17:00 UTC
Prognoza ważna od 10 godzina 18 UTC do 12 godzina 00 UTC
Wiatr 5 kt od północno-północny zachód
Widzialność: 9000 m
Rozproszone chmury na wysokości 1800 ft
Przejściowo
od 11 godzina 04 UTC do 11 godzina 08 UTC
Widzialność: 4000 m
Mało chmury na wysokości 1700 ft, Cumulonimbus.
deszcz

TAF: WABB 101700Z 1018/1200 34005KT 9000 SCT018 TEMPO 1104/1108 4000 RA FEW017CB

Obserwacja i prognoza pogody dla ponad 4000 lotnisk (raport METAR i TAF).

Dostępne stacje oznaczono żółtymi i czerwonymi punktami na mapie.

Najedź kursorem aby zobaczyć nazwę stacji.

Kliknij aby zobaczyć obserwacje i prognozy pogody.

Aby zmienić mapę: kliknij na zielony przycisk z czarnym krzyżykiem, aby powiększyć; na zielony przycisk z myślnikiem, aby pomniejszyć; na zielone strzałki, aby przejść do map sąsiednich.


METAR-TAF: